createdAt,value
2023-01-13T00:00:33.091Z,8.15
2023-01-13T00:02:59.674Z,8.26
2023-01-13T00:05:26.738Z,8.14
2023-01-13T00:07:53.292Z,8.14
2023-01-13T00:10:19.940Z,8.19
2023-01-13T00:12:46.469Z,8.15
2023-01-13T00:15:13.458Z,8.17
2023-01-13T00:17:40.045Z,8.23
2023-01-13T00:20:07.118Z,8.22
2023-01-13T00:22:36.621Z,8.22
2023-01-13T00:25:04.377Z,8.33
2023-01-13T00:27:31.726Z,8.34
2023-01-13T00:29:58.338Z,8.24
2023-01-13T00:32:25.139Z,8.20
2023-01-13T00:34:51.636Z,8.23
2023-01-13T00:37:18.097Z,8.23
2023-01-13T00:39:45.724Z,8.23
2023-01-13T00:42:31.123Z,8.19
2023-01-13T00:44:57.593Z,8.13
2023-01-13T00:47:24.098Z,8.30
2023-01-13T00:49:50.560Z,8.16
2023-01-13T00:52:16.987Z,8.26
2023-01-13T00:54:43.573Z,8.25
2023-01-13T00:57:10.060Z,8.27
2023-01-13T00:59:36.701Z,8.31
2023-01-13T01:02:03.294Z,8.29
2023-01-13T01:04:32.516Z,8.27
2023-01-13T01:06:59.101Z,8.30
2023-01-13T01:09:32.649Z,8.31
2023-01-13T01:11:59.932Z,8.28
2023-01-13T01:14:27.233Z,8.33
2023-01-13T01:16:54.452Z,8.44
2023-01-13T01:19:20.990Z,8.34
2023-01-13T01:21:47.610Z,8.34
2023-01-13T01:24:16.564Z,8.27
2023-01-13T01:26:43.179Z,8.23
2023-01-13T01:29:11.889Z,8.25
2023-01-13T01:31:38.405Z,8.31
2023-01-13T01:34:04.895Z,8.21
2023-01-13T01:36:35.054Z,8.30
2023-01-13T01:39:01.865Z,8.45
2023-01-13T01:41:29.950Z,8.35
2023-01-13T01:44:03.752Z,8.46
2023-01-13T01:46:35.588Z,8.45
2023-01-13T01:49:21.024Z,8.46
2023-01-13T01:52:10.686Z,8.41
2023-01-13T01:54:43.997Z,8.50
2023-01-13T01:57:11.347Z,8.50
2023-01-13T01:59:38.622Z,8.46
2023-01-13T02:02:05.554Z,8.52
2023-01-13T02:04:34.619Z,8.47
2023-01-13T02:07:02.288Z,8.46
2023-01-13T02:09:29.009Z,8.43
2023-01-13T02:12:14.232Z,8.43
2023-01-13T02:14:41.442Z,8.40
2023-01-13T02:17:08.109Z,8.60
2023-01-13T02:19:53.497Z,8.47
2023-01-13T02:22:23.035Z,8.41
2023-01-13T02:25:15.757Z,8.35
2023-01-13T02:27:45.232Z,8.35
2023-01-13T02:30:33.765Z,8.36
2023-01-13T02:33:06.049Z,8.34
2023-01-13T02:35:38.505Z,8.34
2023-01-13T02:38:05.915Z,8.40
2023-01-13T02:40:36.253Z,8.39
2023-01-13T02:43:31.794Z,8.51
2023-01-13T02:46:22.106Z,8.44
2023-01-13T02:48:51.846Z,8.50
2023-01-13T02:51:21.324Z,8.46
2023-01-13T02:53:56.840Z,8.52
2023-01-13T02:56:24.132Z,8.44
2023-01-13T02:58:51.315Z,8.39
2023-01-13T03:01:17.965Z,8.44
2023-01-13T03:03:44.667Z,8.36
2023-01-13T03:06:11.089Z,8.42
2023-01-13T03:08:46.721Z,8.37
2023-01-13T03:11:14.502Z,8.28
2023-01-13T03:13:43.940Z,8.31
2023-01-13T03:16:19.558Z,8.23
2023-01-13T03:18:52.683Z,8.37
2023-01-13T03:21:22.366Z,8.37
2023-01-13T03:23:57.819Z,8.27
2023-01-13T03:26:27.122Z,8.28
2023-01-13T03:28:56.424Z,8.26
2023-01-13T03:31:26.608Z,8.27
2023-01-13T03:33:58.891Z,8.30
2023-01-13T03:36:28.043Z,8.24
2023-01-13T03:38:57.830Z,8.20
2023-01-13T03:41:29.841Z,8.17
2023-01-13T03:44:22.410Z,8.15
2023-01-13T03:46:51.678Z,8.29
2023-01-13T03:49:20.633Z,8.26
2023-01-13T03:51:49.686Z,8.10
2023-01-13T03:54:17.424Z,8.18
2023-01-13T03:56:49.325Z,8.15
2023-01-13T03:59:24.171Z,8.29
2023-01-13T04:01:50.816Z,8.21
2023-01-13T04:04:21.350Z,8.28
2023-01-13T04:06:53.011Z,8.32
2023-01-13T04:09:31.734Z,8.33
2023-01-13T04:12:11.407Z,8.28
2023-01-13T04:14:38.090Z,8.22
2023-01-13T04:17:05.240Z,8.32
2023-01-13T04:19:33.144Z,8.26
2023-01-13T04:22:00.943Z,8.26
2023-01-13T04:24:27.436Z,8.26
2023-01-13T04:26:54.063Z,8.28
2023-01-13T04:29:23.585Z,8.20
2023-01-13T04:31:50.076Z,8.17
2023-01-13T04:34:18.719Z,8.06
2023-01-13T04:36:45.260Z,8.15
2023-01-13T04:39:11.768Z,8.13
2023-01-13T04:41:56.947Z,8.09
2023-01-13T04:44:23.418Z,8.00
2023-01-13T04:46:49.895Z,8.07
2023-01-13T04:49:16.464Z,8.21
2023-01-13T04:51:42.919Z,8.24
2023-01-13T04:54:11.955Z,8.14
2023-01-13T04:56:42.646Z,8.28
2023-01-13T04:59:15.410Z,8.42
2023-01-13T05:01:45.212Z,8.45
2023-01-13T05:04:11.974Z,8.48
2023-01-13T05:06:40.652Z,8.50
2023-01-13T05:09:09.539Z,8.46
2023-01-13T05:11:54.435Z,8.47
2023-01-13T05:14:40.646Z,8.46
2023-01-13T05:17:10.109Z,8.49
2023-01-13T05:19:40.781Z,8.55
2023-01-13T05:22:25.999Z,8.49
2023-01-13T05:25:11.004Z,8.45
2023-01-13T05:27:37.446Z,8.40
2023-01-13T05:30:04.424Z,8.47
2023-01-13T05:32:31.131Z,8.41
2023-01-13T05:34:57.653Z,8.50
2023-01-13T05:37:24.404Z,8.51
2023-01-13T05:40:09.561Z,8.49
2023-01-13T05:42:54.560Z,8.45
2023-01-13T05:45:21.407Z,8.58
2023-01-13T05:47:47.929Z,8.62
2023-01-13T05:50:14.521Z,8.55
2023-01-13T05:52:41.064Z,8.59
2023-01-13T05:55:07.701Z,8.48
2023-01-13T05:57:34.140Z,8.60
2023-01-13T06:00:00.693Z,8.54
2023-01-13T06:02:27.287Z,8.60
2023-01-13T06:04:53.811Z,8.58
2023-01-13T06:07:22.432Z,8.58
2023-01-13T06:09:48.872Z,8.59
2023-01-13T06:12:15.325Z,8.51
2023-01-13T06:14:41.790Z,8.65
2023-01-13T06:17:12.076Z,8.68
2023-01-13T06:19:38.860Z,8.66
2023-01-13T06:22:08.361Z,8.83
2023-01-13T06:24:34.901Z,8.77
2023-01-13T06:27:01.363Z,8.76
2023-01-13T06:29:27.889Z,8.77
2023-01-13T06:31:54.511Z,8.80
2023-01-13T06:34:21.041Z,8.73
2023-01-13T06:36:50.704Z,8.73
2023-01-13T06:39:19.024Z,8.71
2023-01-13T06:42:06.714Z,8.73
2023-01-13T06:44:33.264Z,8.61
2023-01-13T06:46:59.962Z,8.61
2023-01-13T06:49:26.556Z,8.44
2023-01-13T06:51:53.021Z,8.33
2023-01-13T06:54:19.574Z,8.36
2023-01-13T06:56:46.082Z,8.35
2023-01-13T06:59:12.572Z,8.31
2023-01-13T07:01:39.102Z,8.39
2023-01-13T07:04:05.658Z,8.40
2023-01-13T07:06:32.445Z,8.50
2023-01-13T07:09:01.112Z,8.52
2023-01-13T07:11:28.853Z,8.45
2023-01-13T07:14:13.794Z,8.43
2023-01-13T07:16:43.030Z,8.40
2023-01-13T07:19:09.730Z,8.43
2023-01-13T07:21:36.532Z,8.36
2023-01-13T07:24:03.257Z,8.35
2023-01-13T07:26:32.030Z,8.30
2023-01-13T07:29:00.969Z,8.27
2023-01-13T07:31:30.005Z,8.28
2023-01-13T07:33:58.862Z,8.28
2023-01-13T07:36:27.501Z,8.37
2023-01-13T07:38:57.187Z,8.31
2023-01-13T07:41:42.883Z,8.32
2023-01-13T07:44:11.095Z,8.33
2023-01-13T07:46:38.733Z,8.24
2023-01-13T07:49:05.740Z,8.30
2023-01-13T07:51:35.299Z,8.29
2023-01-13T07:54:01.803Z,8.22
2023-01-13T07:56:28.397Z,8.25
2023-01-13T07:58:54.971Z,8.18
2023-01-13T08:01:22.635Z,8.19
2023-01-13T08:03:49.132Z,8.24
2023-01-13T08:06:15.675Z,8.17
2023-01-13T08:08:42.111Z,8.15
2023-01-13T08:11:08.916Z,8.19
2023-01-13T08:13:35.431Z,8.34
2023-01-13T08:16:12.205Z,8.25
2023-01-13T08:18:39.132Z,8.25
2023-01-13T08:21:07.880Z,8.32
2023-01-13T08:23:34.826Z,8.18
2023-01-13T08:26:02.757Z,8.13
2023-01-13T08:28:31.307Z,8.22
2023-01-13T08:31:08.155Z,8.24
2023-01-13T08:33:35.190Z,8.38
2023-01-13T08:36:11.611Z,8.35
2023-01-13T08:38:41.139Z,8.38
2023-01-13T08:41:18.137Z,8.36
2023-01-13T08:43:44.674Z,8.31
2023-01-13T08:46:14.443Z,8.30
2023-01-13T08:48:41.121Z,8.33
2023-01-13T08:51:09.039Z,8.33
2023-01-13T08:53:38.312Z,8.35
2023-01-13T08:56:11.781Z,8.59
2023-01-13T08:58:38.654Z,8.46
2023-01-13T09:01:05.994Z,8.42
2023-01-13T09:03:32.685Z,8.41
2023-01-13T09:05:59.365Z,8.54
2023-01-13T09:08:25.854Z,8.52
2023-01-13T09:10:52.412Z,8.29
2023-01-13T09:13:20.408Z,8.28
2023-01-13T09:15:47.369Z,8.26
2023-01-13T09:18:13.969Z,8.38
2023-01-13T09:20:40.677Z,8.35
2023-01-13T09:23:10.045Z,8.39
2023-01-13T09:25:37.043Z,8.39
2023-01-13T09:28:05.019Z,8.42
2023-01-13T09:30:31.897Z,8.41
2023-01-13T09:33:19.131Z,8.79
2023-01-13T09:35:45.603Z,8.71
2023-01-13T09:38:12.024Z,8.62
2023-01-13T09:40:41.316Z,8.47
2023-01-13T09:43:36.775Z,8.48
2023-01-13T09:46:27.271Z,8.42
2023-01-13T09:48:54.340Z,8.25
2023-01-13T09:51:28.252Z,8.15
2023-01-13T09:53:56.908Z,8.40
2023-01-13T09:56:24.446Z,8.39
2023-01-13T09:58:51.023Z,8.25
2023-01-13T10:01:40.879Z,8.22
2023-01-13T10:04:11.650Z,8.12
2023-01-13T10:06:39.423Z,8.08
2023-01-13T10:09:06.243Z,8.04
2023-01-13T10:11:53.128Z,8.05
2023-01-13T10:14:33.731Z,8.24
2023-01-13T10:17:19.002Z,8.68
2023-01-13T10:20:16.916Z,8.46
2023-01-13T10:23:04.218Z,8.38
2023-01-13T10:25:42.625Z,8.42
2023-01-13T10:28:11.813Z,8.25
2023-01-13T10:30:40.309Z,8.30
2023-01-13T10:33:06.843Z,8.26
2023-01-13T10:35:52.133Z,8.17
2023-01-13T10:38:28.444Z,8.22
2023-01-13T10:40:56.457Z,8.17
2023-01-13T10:43:23.357Z,8.38
2023-01-13T10:46:13.245Z,8.17
2023-01-13T10:48:41.724Z,8.26
2023-01-13T10:51:18.093Z,8.26
2023-01-13T10:53:46.497Z,8.48
2023-01-13T10:56:19.785Z,8.26
2023-01-13T10:58:46.636Z,8.44
2023-01-13T11:01:21.249Z,8.47
2023-01-13T11:03:48.356Z,8.55
2023-01-13T11:06:25.732Z,8.84
2023-01-13T11:08:55.327Z,9.40
2023-01-13T11:11:42.292Z,9.65
2023-01-13T11:14:33.160Z,9.94
2023-01-13T11:17:26.283Z,9.97
2023-01-13T11:20:05.662Z,10.16
2023-01-13T11:22:34.092Z,9.97
2023-01-13T11:25:01.862Z,10.50
2023-01-13T11:27:37.217Z,10.34
2023-01-13T11:30:10.061Z,10.55
2023-01-13T11:32:48.881Z,10.30
2023-01-13T11:35:19.440Z,10.37
2023-01-13T11:37:50.380Z,10.19
2023-01-13T11:40:21.427Z,10.46
2023-01-13T11:43:06.741Z,10.36
2023-01-13T11:45:49.514Z,10.30
2023-01-13T11:48:17.798Z,10.46
2023-01-13T11:50:57.175Z,10.58
2023-01-13T11:53:42.373Z,10.48
2023-01-13T11:56:08.871Z,10.88
2023-01-13T11:58:59.485Z,10.83
2023-01-13T12:01:32.468Z,10.56
2023-01-13T12:04:25.326Z,10.56
2023-01-13T12:07:13.059Z,10.16
2023-01-13T12:09:47.795Z,10.52
2023-01-13T12:12:32.968Z,10.40
2023-01-13T12:15:18.368Z,10.64
2023-01-13T12:17:52.602Z,10.46
2023-01-13T12:20:25.587Z,10.30
2023-01-13T12:22:53.915Z,10.42
2023-01-13T12:25:23.358Z,10.82
2023-01-13T12:27:55.342Z,10.62
2023-01-13T12:30:40.472Z,10.60
2023-01-13T12:33:16.322Z,10.64
2023-01-13T12:36:20.100Z,10.71
2023-01-13T12:38:49.073Z,10.78
2023-01-13T12:41:18.939Z,10.85
2023-01-13T12:44:06.557Z,10.35
2023-01-13T12:46:33.960Z,9.83
2023-01-13T12:49:04.628Z,9.78
2023-01-13T12:51:34.237Z,9.75
2023-01-13T12:54:01.446Z,9.69
2023-01-13T12:56:37.025Z,9.54
2023-01-13T12:59:19.137Z,9.79
2023-01-13T13:01:47.138Z,9.80
2023-01-13T13:04:21.828Z,9.51
2023-01-13T13:06:53.856Z,9.27
2023-01-13T13:09:32.699Z,9.22
2023-01-13T13:12:42.023Z,9.26
2023-01-13T13:15:22.845Z,9.20
2023-01-13T13:18:01.823Z,8.98
2023-01-13T13:20:47.309Z,8.99
2023-01-13T13:23:32.454Z,9.04
2023-01-13T13:25:59.325Z,9.11
2023-01-13T13:28:25.995Z,9.03
2023-01-13T13:31:07.336Z,8.91
2023-01-13T13:33:39.242Z,8.79
2023-01-13T13:36:32.434Z,8.74
2023-01-13T13:39:17.853Z,8.78
2023-01-13T13:42:05.626Z,8.82
2023-01-13T13:44:55.003Z,8.69
2023-01-13T13:47:21.599Z,8.80
2023-01-13T13:49:52.568Z,8.59
2023-01-13T13:52:33.709Z,8.59
2023-01-13T13:55:05.838Z,8.60
2023-01-13T13:57:39.540Z,8.59
2023-01-13T14:00:11.490Z,8.62
2023-01-13T14:02:38.123Z,8.68
2023-01-13T14:05:09.029Z,8.65
2023-01-13T14:07:42.399Z,8.78
2023-01-13T14:10:14.406Z,8.81
2023-01-13T14:12:41.589Z,8.80
2023-01-13T14:15:27.544Z,8.78
2023-01-13T14:17:54.292Z,8.76
2023-01-13T14:20:22.174Z,8.77
2023-01-13T14:22:49.614Z,8.77
2023-01-13T14:25:29.664Z,8.73
2023-01-13T14:27:57.177Z,8.80
2023-01-13T14:30:25.927Z,8.69
2023-01-13T14:32:52.979Z,8.86
2023-01-13T14:35:19.869Z,8.82
2023-01-13T14:37:48.976Z,8.80
2023-01-13T14:40:36.144Z,8.83
2023-01-13T14:43:03.882Z,8.78
2023-01-13T14:45:33.761Z,8.66
2023-01-13T14:48:01.384Z,8.62
2023-01-13T14:50:32.817Z,8.62
2023-01-13T14:53:00.944Z,8.52
2023-01-13T14:55:36.838Z,8.61
2023-01-13T14:58:21.734Z,8.36
2023-01-13T15:00:49.477Z,8.34
2023-01-13T15:03:16.970Z,8.22
2023-01-13T15:05:47.950Z,8.32
2023-01-13T15:08:14.457Z,8.16
2023-01-13T15:10:53.075Z,8.16
2023-01-13T15:13:26.247Z,8.10
2023-01-13T15:15:54.828Z,8.08
2023-01-13T15:18:24.387Z,7.89
2023-01-13T15:20:53.637Z,7.84
2023-01-13T15:23:20.707Z,7.76
2023-01-13T15:25:50.835Z,7.72
2023-01-13T15:28:19.341Z,7.70
2023-01-13T15:30:45.966Z,7.69
2023-01-13T15:33:13.086Z,7.63
2023-01-13T15:35:41.565Z,7.62
2023-01-13T15:38:16.005Z,7.66
2023-01-13T15:40:42.944Z,7.65
2023-01-13T15:43:38.237Z,7.54
2023-01-13T15:46:39.657Z,7.59
2023-01-13T15:49:12.788Z,7.69
2023-01-13T15:51:40.302Z,7.60
2023-01-13T15:54:09.949Z,7.73
2023-01-13T15:56:36.780Z,7.76
2023-01-13T15:59:04.044Z,7.83
2023-01-13T16:01:30.517Z,7.79
2023-01-13T16:03:57.045Z,7.92
2023-01-13T16:06:27.931Z,7.92
2023-01-13T16:08:54.397Z,8.03
2023-01-13T16:11:20.888Z,7.90
2023-01-13T16:13:47.386Z,7.93
2023-01-13T16:16:24.397Z,7.93
2023-01-13T16:18:51.786Z,7.98
2023-01-13T16:21:22.148Z,8.02
2023-01-13T16:23:49.459Z,8.01
2023-01-13T16:26:23.611Z,8.03
2023-01-13T16:28:51.320Z,8.12
2023-01-13T16:31:20.211Z,8.08
2023-01-13T16:33:46.791Z,7.89
2023-01-13T16:36:14.580Z,7.87
2023-01-13T16:38:41.356Z,7.91
2023-01-13T16:41:08.471Z,7.99
2023-01-13T16:43:35.552Z,7.96
2023-01-13T16:46:02.470Z,7.77
2023-01-13T16:48:29.010Z,7.65
2023-01-13T16:50:55.794Z,7.55
2023-01-13T16:53:22.485Z,7.62
2023-01-13T16:55:49.022Z,7.51
2023-01-13T16:58:17.385Z,7.48
2023-01-13T17:00:46.995Z,7.45
2023-01-13T17:03:14.143Z,7.60
2023-01-13T17:05:41.352Z,7.48
2023-01-13T17:08:10.268Z,7.47
2023-01-13T17:10:36.718Z,7.55
2023-01-13T17:13:14.732Z,7.52
2023-01-13T17:15:42.380Z,7.50
2023-01-13T17:18:09.034Z,7.46
2023-01-13T17:20:35.569Z,7.49
2023-01-13T17:23:02.046Z,7.33
2023-01-13T17:25:28.751Z,7.41
2023-01-13T17:28:10.564Z,7.37
2023-01-13T17:30:37.220Z,7.26
2023-01-13T17:33:03.765Z,7.17
2023-01-13T17:38:23.254Z,7.24
2023-01-13T17:40:53.940Z,7.35
2023-01-13T17:43:20.436Z,7.30
2023-01-13T17:45:47.106Z,7.35
2023-01-13T17:48:13.729Z,7.37
2023-01-13T17:50:40.434Z,7.38
2023-01-13T17:53:06.951Z,7.35
2023-01-13T17:55:33.406Z,7.31
2023-01-13T17:57:59.896Z,7.38
2023-01-13T18:00:26.476Z,7.37
2023-01-13T18:02:54.502Z,7.40
2023-01-13T18:05:21.069Z,7.55
2023-01-13T18:07:47.541Z,7.50
2023-01-13T18:10:14.389Z,7.55
2023-01-13T18:12:40.896Z,7.49
2023-01-13T18:15:07.743Z,7.62
2023-01-13T18:17:34.308Z,7.59
2023-01-13T18:20:19.198Z,7.57
2023-01-13T18:23:04.381Z,7.57
2023-01-13T18:25:49.365Z,7.68
2023-01-13T18:28:15.925Z,7.70
2023-01-13T18:30:42.465Z,7.66
2023-01-13T18:33:08.986Z,7.66
2023-01-13T18:35:37.984Z,7.61
2023-01-13T18:38:04.441Z,7.48
2023-01-13T18:40:31.409Z,7.40
2023-01-13T18:42:59.303Z,7.33
2023-01-13T18:45:29.164Z,7.35
2023-01-13T18:47:56.912Z,7.45
2023-01-13T18:50:23.529Z,7.23
2023-01-13T18:52:50.089Z,7.30
2023-01-13T18:55:17.222Z,7.26
2023-01-13T18:57:43.779Z,7.33
2023-01-13T19:00:12.770Z,7.38
2023-01-13T19:02:39.602Z,7.39
2023-01-13T19:05:06.513Z,7.41
2023-01-13T19:07:35.030Z,7.38
2023-01-13T19:10:04.245Z,7.55
2023-01-13T19:12:31.440Z,7.46
2023-01-13T19:14:58.628Z,7.42
2023-01-13T19:17:26.326Z,7.61
2023-01-13T19:19:54.326Z,7.59
2023-01-13T19:22:23.340Z,7.66
2023-01-13T19:24:51.050Z,7.58
2023-01-13T19:27:18.609Z,7.54
2023-01-13T19:29:48.633Z,7.70
2023-01-13T19:32:18.746Z,7.77
2023-01-13T19:34:46.814Z,7.62
2023-01-13T19:37:13.517Z,7.51
2023-01-13T19:39:39.967Z,7.55
2023-01-13T19:42:25.396Z,7.40
2023-01-13T19:45:10.675Z,7.35
2023-01-13T19:47:38.746Z,7.49
2023-01-13T19:50:07.962Z,7.46
2023-01-13T19:52:34.618Z,7.29
2023-01-13T19:55:02.134Z,7.33
2023-01-13T19:57:28.767Z,7.22
2023-01-13T19:59:55.262Z,7.29
2023-01-13T20:02:28.465Z,7.29
2023-01-13T20:04:56.123Z,7.30
2023-01-13T20:07:24.131Z,7.21
2023-01-13T20:09:51.469Z,7.26
2023-01-13T20:12:18.558Z,7.09
2023-01-13T20:14:46.475Z,7.15
2023-01-13T20:17:14.082Z,7.27
2023-01-13T20:19:41.250Z,7.04
2023-01-13T20:22:07.951Z,7.12
2023-01-13T20:24:34.861Z,7.25
2023-01-13T20:27:01.565Z,7.23
2023-01-13T20:29:28.755Z,7.25
2023-01-13T20:31:55.520Z,7.30
2023-01-13T20:34:22.052Z,7.32
2023-01-13T20:36:50.046Z,7.22
2023-01-13T20:39:17.821Z,7.30
2023-01-13T20:42:02.831Z,7.17
2023-01-13T20:44:29.743Z,7.23
2023-01-13T20:46:57.869Z,7.20
2023-01-13T20:49:25.378Z,7.19
2023-01-13T20:51:51.981Z,7.23
2023-01-13T20:54:18.785Z,7.17
2023-01-13T20:56:45.267Z,7.06
2023-01-13T20:59:12.012Z,7.13
2023-01-13T21:01:38.938Z,7.12
2023-01-13T21:04:06.912Z,7.01
2023-01-13T21:06:34.096Z,6.93
2023-01-13T21:09:00.774Z,6.93
2023-01-13T21:11:46.651Z,6.93
2023-01-13T21:14:36.253Z,6.79
2023-01-13T21:17:03.188Z,7.00
2023-01-13T21:19:29.671Z,6.89
2023-01-13T21:21:56.666Z,6.80
2023-01-13T21:24:23.860Z,6.91
2023-01-13T21:26:58.987Z,6.86
2023-01-13T21:29:25.498Z,6.87
2023-01-13T21:31:54.020Z,6.82
2023-01-13T21:34:20.553Z,6.88
2023-01-13T21:36:47.049Z,7.03
2023-01-13T21:39:15.467Z,7.04
2023-01-13T21:42:00.775Z,7.06
2023-01-13T21:44:45.830Z,6.84
2023-01-13T21:47:32.835Z,6.86
2023-01-13T21:49:59.372Z,6.77
2023-01-13T21:52:26.179Z,6.95
2023-01-13T21:55:11.187Z,6.89
2023-01-13T21:57:37.626Z,6.73
2023-01-13T22:00:05.312Z,6.79
2023-01-13T22:02:32.135Z,6.76
2023-01-13T22:04:59.678Z,6.70
2023-01-13T22:07:27.638Z,6.91
2023-01-13T22:09:54.624Z,6.75
2023-01-13T22:12:24.980Z,6.77
2023-01-13T22:14:52.175Z,6.78
2023-01-13T22:17:23.144Z,6.77
2023-01-13T22:19:52.776Z,6.78
2023-01-13T22:22:19.814Z,6.65
2023-01-13T22:24:47.427Z,6.78
2023-01-13T22:27:15.438Z,6.68
2023-01-13T22:29:42.703Z,6.61
2023-01-13T22:32:09.269Z,6.59
2023-01-13T22:34:35.812Z,6.54
2023-01-13T22:37:02.390Z,6.51
2023-01-13T22:39:29.108Z,6.51
2023-01-13T22:41:55.604Z,6.44
2023-01-13T22:44:22.104Z,6.46
2023-01-13T22:46:48.674Z,6.40
2023-01-13T22:49:15.860Z,6.34
2023-01-13T22:51:42.379Z,6.30
2023-01-13T22:54:09.636Z,6.25
2023-01-13T22:56:36.253Z,6.22
2023-01-13T22:59:03.816Z,6.26
2023-01-13T23:01:32.007Z,6.25
2023-01-13T23:03:59.050Z,6.32
2023-01-13T23:06:28.437Z,6.42
2023-01-13T23:08:55.605Z,6.41
2023-01-13T23:11:26.617Z,6.41
2023-01-13T23:13:58.514Z,6.38
2023-01-13T23:16:25.362Z,6.30
2023-01-13T23:18:51.977Z,6.20
2023-01-13T23:21:20.146Z,6.18
2023-01-13T23:23:47.006Z,6.09
2023-01-13T23:26:13.938Z,6.03
2023-01-13T23:28:40.424Z,6.05
2023-01-13T23:31:07.705Z,6.07
2023-01-13T23:33:34.641Z,6.10
2023-01-13T23:36:03.478Z,6.01
2023-01-13T23:38:30.125Z,6.08
2023-01-13T23:40:56.743Z,6.08
2023-01-13T23:43:23.317Z,6.32
2023-01-13T23:45:50.086Z,6.29
2023-01-13T23:48:18.633Z,6.25
2023-01-13T23:50:45.141Z,6.33
2023-01-13T23:53:11.589Z,6.26
2023-01-13T23:55:40.637Z,6.32
2023-01-13T23:58:07.120Z,6.41
